Observations for Trim Patrick St
| Time | AQI | Temp °C | Hum % | Pres Pa | CO μg/m³ | H₂S μg/m³ | NO μg/m³ | NO₂ μg/m³ | O₃ μg/m³ | SO₂ μg/m³ | PM1 μg/m³ | PM2.5 μg/m³ | PM10 μg/m³ |
|---|---|---|---|---|---|---|---|---|---|---|---|---|---|
| Sunday 9 August 2026 | |||||||||||||
| 06:37 | 2 | 18 | 74 | 38,455 | 0.08 | 6.51 | 1.84 | 12.56 | 43.8 | 1.48 | 6.29 | 9.93 | 10.92 |
| 06:36 | 2 | 18 | 73 | 38,453 | 0.09 | 6.45 | 1.85 | 30.94 | 42.11 | 0.87 | 6.29 | 10.65 | 11.71 |
| 06:35 | 2 | 18 | 73 | 38,450 | 0.08 | 5.98 | 1.85 | 13.45 | 47.35 | 1.07 | 3.71 | 8.51 | 9.36 |
| 06:34 | 2 | 18 | 73 | 38,446 | 0.08 | 7.45 | 1.84 | 23.14 | 39.85 | 1.41 | 5.43 | 8.54 | 9.39 |
| 06:33 | 2 | 18 | 73 | 38,442 | 0.07 | 5.98 | 1.83 | 31.96 | 39.17 | 0.48 | 6.29 | 9.95 | 10.95 |
| 06:32 | 2 | 18 | 73 | 38,435 | 0.09 | 4.91 | 1.56 | 22.22 | 39.29 | 0.88 | 6.29 | 9.25 | 10.18 |
| 06:31 | 2 | 18 | 73 | 38,427 | 0.08 | 5.75 | 1.56 | 10.93 | 39.12 | 1.67 | 5.43 | 9.24 | 10.17 |
| 06:30 | 2 | 18 | 73 | 38,415 | 0.08 | 8.45 | 1.49 | 35.34 | 48.04 | 0.26 | 5.43 | 9.25 | 10.18 |
| 06:29 | 2 | 18.1 | 73 | 38,400 | 0.07 | 6.61 | 1.46 | 26.09 | 47.08 | 0.84 | 5.43 | 9.99 | 10.99 |
| 06:28 | 2 | 18 | 72 | 38,380 | 0.07 | 5.43 | 1.43 | 18.41 | 53.28 | 0.85 | 4.57 | 8.62 | 9.48 |
| 06:27 | 2 | 18 | 73 | 38,354 | 0.07 | 6.43 | 1.74 | 22.66 | 42.18 | 0.72 | 6.29 | 9.99 | 10.99 |
| 06:26 | 2 | 18 | 73 | 38,318 | 0.07 | 6.27 | 1.59 | 27.38 | 36.36 | 0.5 | 5.43 | 9.27 | 10.2 |
| 06:25 | 2 | 18.1 | 72 | 38,271 | 0.08 | 7.32 | 1.65 | 25.2 | 47.63 | 1.09 | 5.43 | 9.3 | 10.23 |
| 06:24 | 2 | 18.1 | 72 | 38,206 | 0.08 | 7.19 | 1.72 | 27.01 | 50.35 | 0.64 | 4.57 | 9.3 | 10.23 |
| 06:23 | 2 | 18.1 | 72 | 38,122 | 0.07 | 6.43 | 1.77 | 32.1 | 45.74 | 0.54 | 7.14 | 11.45 | 12.59 |
| 06:22 | 2 | 18.1 | 72 | 38,010 | 0.07 | 5.3 | 1.53 | 14.79 | 38.34 | 0.99 | 6.29 | 10.03 | 11.03 |
| 06:21 | 2 | 18.1 | 72 | 37,858 | 0.07 | 6.53 | 1.77 | 23.2 | 50.19 | 0.56 | 5.43 | 10.02 | 11.02 |
| 06:20 | 2 | 18.1 | 72 | 37,657 | 0.09 | 6.27 | 1.72 | 29.18 | 41.28 | 0.51 | 6.29 | 10.03 | 11.03 |
| 06:19 | 2 | 18.1 | 72 | 37,390 | 0.07 | 5.48 | 1.79 | 17.57 | 46.02 | 0.97 | 6.29 | 10.75 | 11.82 |
| 06:18 | 2 | 18.1 | 72 | 37,033 | 0.08 | 7.16 | 1.72 | 23.37 | 43.18 | 0.83 | 5.43 | 10.06 | 11.07 |